sensor_id;sensor_type;location;lat;lon;timestamp;pressure;altitude;pressure_sealevel;temperature;humidity
69713;BME280;56980;51.826;4.424;2022-12-08T00:00:39;101315.25;;;5.46;86.08
69713;BME280;56980;51.826;4.424;2022-12-08T00:03:05;101297.25;;;5.40;86.37
69713;BME280;56980;51.826;4.424;2022-12-08T00:05:30;101305.59;;;5.59;85.63
69713;BME280;56980;51.826;4.424;2022-12-08T00:08:14;101299.88;;;5.54;86.09
69713;BME280;56980;51.826;4.424;2022-12-08T00:10:58;101276.13;;;5.45;85.96
69713;BME280;56980;51.826;4.424;2022-12-08T00:13:23;101276.94;;;5.28;86.89
69713;BME280;56980;51.826;4.424;2022-12-08T00:15:49;101283.81;;;5.43;86.20
69713;BME280;56980;51.826;4.424;2022-12-08T00:18:14;101272.78;;;5.13;87.63
69713;BME280;56980;51.826;4.424;2022-12-08T00:20:39;101273.91;;;5.15;87.99
69713;BME280;56980;51.826;4.424;2022-12-08T00:23:05;101276.59;;;5.19;88.11
69713;BME280;56980;51.826;4.424;2022-12-08T00:25:33;101277.28;;;5.44;86.89
69713;BME280;56980;51.826;4.424;2022-12-08T00:27:59;101255.91;;;5.09;87.70
69713;BME280;56980;51.826;4.424;2022-12-08T00:30:24;101279.97;;;5.41;87.33
69713;BME280;56980;51.826;4.424;2022-12-08T00:32:49;101255.91;;;5.05;88.13
69713;BME280;56980;51.826;4.424;2022-12-08T00:35:15;101242.84;;;5.14;87.77
69713;BME280;56980;51.826;4.424;2022-12-08T00:37:40;101254.25;;;5.43;87.25
69713;BME280;56980;51.826;4.424;2022-12-08T00:40:06;101250.09;;;5.25;87.47
69713;BME280;56980;51.826;4.424;2022-12-08T00:42:32;101258.22;;;5.07;88.99
69713;BME280;56980;51.826;4.424;2022-12-08T00:44:57;101254.75;;;5.17;87.65
69713;BME280;56980;51.826;4.424;2022-12-08T00:47:22;101265.06;;;5.22;88.18
69713;BME280;56980;51.826;4.424;2022-12-08T00:49:48;101236.78;;;4.78;89.10
69713;BME280;56980;51.826;4.424;2022-12-08T00:52:13;101242.13;;;4.96;88.92
69713;BME280;56980;51.826;4.424;2022-12-08T00:54:38;101253.22;;;5.09;88.13
69713;BME280;56980;51.826;4.424;2022-12-08T00:57:04;101213.34;;;4.93;87.84
69713;BME280;56980;51.826;4.424;2022-12-08T00:59:29;101244.78;;;5.07;88.44
69713;BME280;56980;51.826;4.424;2022-12-08T01:01:54;101225.91;;;5.28;87.09
69713;BME280;56980;51.826;4.424;2022-12-08T01:04:20;101202.91;;;5.20;86.71
69713;BME280;56980;51.826;4.424;2022-12-08T01:06:46;101239.66;;;5.44;86.69
69713;BME280;56980;51.826;4.424;2022-12-08T01:09:13;101231.59;;;5.44;86.43
69713;BME280;56980;51.826;4.424;2022-12-08T01:11:39;101200.19;;;5.27;86.19
69713;BME280;56980;51.826;4.424;2022-12-08T01:14:04;101221.22;;;5.39;86.36
69713;BME280;56980;51.826;4.424;2022-12-08T01:16:32;101215.50;;;5.37;85.89
69713;BME280;56980;51.826;4.424;2022-12-08T01:18:58;101204.81;;;5.23;86.24
69713;BME280;56980;51.826;4.424;2022-12-08T01:21:24;101194.81;;;5.27;85.95
69713;BME280;56980;51.826;4.424;2022-12-08T01:23:50;101207.81;;;5.32;85.99
69713;BME280;56980;51.826;4.424;2022-12-08T01:26:16;101214.69;;;5.40;85.74
69713;BME280;56980;51.826;4.424;2022-12-08T01:28:44;101221.59;;;5.41;86.00
69713;BME280;56980;51.826;4.424;2022-12-08T01:31:16;101236.19;;;5.40;86.26
69713;BME280;56980;51.826;4.424;2022-12-08T01:33:42;101235.53;;;5.22;86.64
69713;BME280;56980;51.826;4.424;2022-12-08T01:36:16;101238.94;;;5.26;86.24
69713;BME280;56980;51.826;4.424;2022-12-08T01:38:43;101227.22;;;4.85;89.44
69713;BME280;56980;51.826;4.424;2022-12-08T01:41:12;101232.41;;;5.31;88.11
69713;BME280;56980;51.826;4.424;2022-12-08T01:46:24;101216.31;;;5.20;87.33
69713;BME280;56980;51.826;4.424;2022-12-08T01:48:53;101214.00;;;5.29;87.01
69713;BME280;56980;51.826;4.424;2022-12-08T01:51:20;101224.75;;;5.29;87.46
69713;BME280;56980;51.826;4.424;2022-12-08T01:53:46;101187.28;;;4.94;87.75
69713;BME280;56980;51.826;4.424;2022-12-08T01:56:19;101218.97;;;5.27;87.83
69713;BME280;56980;51.826;4.424;2022-12-08T01:58:48;101196.72;;;5.30;87.47
69713;BME280;56980;51.826;4.424;2022-12-08T02:01:16;101203.91;;;5.47;86.72
69713;BME280;56980;51.826;4.424;2022-12-08T02:03:46;101194.34;;;5.39;86.30
69713;BME280;56980;51.826;4.424;2022-12-08T02:06:13;101187.94;;;5.19;86.75
69713;BME280;56980;51.826;4.424;2022-12-08T02:08:40;101159.19;;;5.16;85.68
69713;BME280;56980;51.826;4.424;2022-12-08T02:11:10;101189.28;;;5.55;84.74
69713;BME280;56980;51.826;4.424;2022-12-08T02:13:36;101185.44;;;5.56;84.59
69713;BME280;56980;51.826;4.424;2022-12-08T02:16:11;101200.38;;;5.65;84.47
69713;BME280;56980;51.826;4.424;2022-12-08T02:19:04;101190.03;;;5.52;85.02
69713;BME280;56980;51.826;4.424;2022-12-08T02:21:57;101191.16;;;5.62;84.90
69713;BME280;56980;51.826;4.424;2022-12-08T02:24:50;101213.03;;;5.64;83.96
69713;BME280;56980;51.826;4.424;2022-12-08T02:30:10;101204.56;;;4.89;86.33
69713;BME280;56980;51.826;4.424;2022-12-08T02:35:18;101171.09;;;5.08;84.44
69713;BME280;56980;51.826;4.424;2022-12-08T02:40:49;101174.09;;;5.24;83.48
69713;BME280;56980;51.826;4.424;2022-12-08T02:43:28;101177.91;;;5.30;82.63
69713;BME280;56980;51.826;4.424;2022-12-08T02:46:00;101173.75;;;5.15;83.27
69713;BME280;56980;51.826;4.424;2022-12-08T02:48:28;101164.75;;;5.46;82.54
69713;BME280;56980;51.826;4.424;2022-12-08T02:50:54;101154.84;;;5.33;83.59
69713;BME280;56980;51.826;4.424;2022-12-08T02:53:20;101156.38;;;5.34;83.94
69713;BME280;56980;51.826;4.424;2022-12-08T03:03:30;101148.50;;;5.64;83.49
69713;BME280;56980;51.826;4.424;2022-12-08T03:11:19;101131.63;;;5.64;83.81
69713;BME280;56980;51.826;4.424;2022-12-08T03:13:50;101117.78;;;5.65;83.38
69713;BME280;56980;51.826;4.424;2022-12-08T03:16:19;101122.28;;;5.79;83.09
69713;BME280;56980;51.826;4.424;2022-12-08T03:18:51;101110.41;;;5.73;83.25
69713;BME280;56980;51.826;4.424;2022-12-08T03:21:18;101102.41;;;5.66;83.51
69713;BME280;56980;51.826;4.424;2022-12-08T03:23:46;101101.63;;;5.69;83.74
69713;BME280;56980;51.826;4.424;2022-12-08T03:26:54;101094.69;;;5.68;84.21
69713;BME280;56980;51.826;4.424;2022-12-08T03:29:21;101090.72;;;5.38;84.99
69713;BME280;56980;51.826;4.424;2022-12-08T03:34:37;101095.03;;;5.22;85.47
69713;BME280;56980;51.826;4.424;2022-12-08T03:37:05;101086.03;;;5.49;85.00
69713;BME280;56980;51.826;4.424;2022-12-08T03:39:30;101084.06;;;5.53;84.84
69713;BME280;56980;51.826;4.424;2022-12-08T03:41:56;101088.72;;;5.49;85.10
69713;BME280;56980;51.826;4.424;2022-12-08T03:44:21;101088.75;;;5.42;85.12
69713;BME280;56980;51.826;4.424;2022-12-08T03:46:46;101088.72;;;5.49;85.41
69713;BME280;56980;51.826;4.424;2022-12-08T03:49:12;101100.72;;;5.38;85.89
69713;BME280;56980;51.826;4.424;2022-12-08T03:51:37;101088.34;;;5.47;84.88
69713;BME280;56980;51.826;4.424;2022-12-08T03:54:03;101103.41;;;5.34;86.05
69713;BME280;56980;51.826;4.424;2022-12-08T03:56:34;101070.09;;;5.21;85.21
69713;BME280;56980;51.826;4.424;2022-12-08T03:59:00;101063.56;;;5.22;83.97
69713;BME280;56980;51.826;4.424;2022-12-08T04:01:26;101087.31;;;5.31;83.52
69713;BME280;56980;51.826;4.424;2022-12-08T04:03:52;101091.88;;;5.37;83.48
69713;BME280;56980;51.826;4.424;2022-12-08T04:06:18;101078.06;;;5.35;82.96
69713;BME280;56980;51.826;4.424;2022-12-08T04:08:44;101074.28;;;5.29;82.62
69713;BME280;56980;51.826;4.424;2022-12-08T04:11:09;101059.78;;;5.16;81.90
69713;BME280;56980;51.826;4.424;2022-12-08T04:13:36;101071.84;;;5.45;82.63
69713;BME280;56980;51.826;4.424;2022-12-08T04:16:02;101060.34;;;5.41;81.33
69713;BME280;56980;51.826;4.424;2022-12-08T04:18:28;101057.34;;;5.32;81.05
69713;BME280;56980;51.826;4.424;2022-12-08T04:20:53;101061.78;;;5.53;80.14
69713;BME280;56980;51.826;4.424;2022-12-08T04:23:19;101055.41;;;5.33;79.29
69713;BME280;56980;51.826;4.424;2022-12-08T04:25:44;101071.44;;;5.50;77.79
69713;BME280;56980;51.826;4.424;2022-12-08T04:28:09;101061.50;;;5.40;78.81
69713;BME280;56980;51.826;4.424;2022-12-08T04:30:35;101056.09;;;5.47;77.34
69713;BME280;56980;51.826;4.424;2022-12-08T04:33:00;101047.72;;;5.38;78.20
69713;BME280;56980;51.826;4.424;2022-12-08T04:35:26;101063.31;;;5.57;78.70
69713;BME280;56980;51.826;4.424;2022-12-08T04:37:52;101068.75;;;5.47;78.56
69713;BME280;56980;51.826;4.424;2022-12-08T04:40:17;101056.09;;;5.47;78.60
69713;BME280;56980;51.826;4.424;2022-12-08T04:42:43;101048.88;;;5.37;80.13
69713;BME280;56980;51.826;4.424;2022-12-08T04:45:09;101043.28;;;5.17;80.30
69713;BME280;56980;51.826;4.424;2022-12-08T04:47:34;101065.16;;;5.16;81.56
69713;BME280;56980;51.826;4.424;2022-12-08T04:50:00;101047.81;;;5.24;81.70
69713;BME280;56980;51.826;4.424;2022-12-08T04:52:25;101045.47;;;5.30;81.86
69713;BME280;56980;51.826;4.424;2022-12-08T04:54:50;101045.81;;;5.35;81.70
69713;BME280;56980;51.826;4.424;2022-12-08T04:57:16;101061.25;;;5.24;81.89
69713;BME280;56980;51.826;4.424;2022-12-08T04:59:41;101045.44;;;5.33;81.58
69713;BME280;56980;51.826;4.424;2022-12-08T05:02:07;101052.72;;;5.36;81.75
69713;BME280;56980;51.826;4.424;2022-12-08T05:04:32;101033.53;;;5.38;81.67
69713;BME280;56980;51.826;4.424;2022-12-08T05:06:57;101041.66;;;5.27;81.10
69713;BME280;56980;51.826;4.424;2022-12-08T05:09:23;101041.16;;;5.39;81.71
69713;BME280;56980;51.826;4.424;2022-12-08T05:11:48;101048.78;;;5.48;81.82
69713;BME280;56980;51.826;4.424;2022-12-08T05:14:15;101049.97;;;5.43;82.26
69713;BME280;56980;51.826;4.424;2022-12-08T05:16:41;101049.66;;;5.38;82.93
69713;BME280;56980;51.826;4.424;2022-12-08T05:19:06;101054.31;;;5.27;83.76
69713;BME280;56980;51.826;4.424;2022-12-08T05:21:32;101031.72;;;5.21;84.58
69713;BME280;56980;51.826;4.424;2022-12-08T05:23:58;101006.19;;;4.95;84.88
69713;BME280;56980;51.826;4.424;2022-12-08T05:26:23;101041.78;;;5.06;84.76
69713;BME280;56980;51.826;4.424;2022-12-08T05:28:49;101034.78;;;5.19;84.11
69713;BME280;56980;51.826;4.424;2022-12-08T05:31:15;101029.84;;;5.17;83.61
69713;BME280;56980;51.826;4.424;2022-12-08T05:33:42;101017.41;;;5.34;82.82
69713;BME280;56980;51.826;4.424;2022-12-08T05:36:09;101021.94;;;5.44;82.48
69713;BME280;56980;51.826;4.424;2022-12-08T05:38:35;101030.69;;;5.55;82.40
69713;BME280;56980;51.826;4.424;2022-12-08T05:41:01;101016.34;;;5.25;81.84
69713;BME280;56980;51.826;4.424;2022-12-08T05:43:26;101028.47;;;5.43;80.93
69713;BME280;56980;51.826;4.424;2022-12-08T05:45:52;101031.88;;;5.51;80.89
69713;BME280;56980;51.826;4.424;2022-12-08T05:48:17;101021.94;;;5.44;81.56
69713;BME280;56980;51.826;4.424;2022-12-08T05:50:49;101027.72;;;5.84;80.34
69713;BME280;56980;51.826;4.424;2022-12-08T05:53:17;101007.19;;;5.59;80.93
69713;BME280;56980;51.826;4.424;2022-12-08T05:55:43;101011.41;;;5.64;81.39
69713;BME280;56980;51.826;4.424;2022-12-08T05:58:14;101030.03;;;5.85;81.12
69713;BME280;56980;51.826;4.424;2022-12-08T06:00:40;101031.16;;;5.43;82.12
69713;BME280;56980;51.826;4.424;2022-12-08T06:03:07;101034.97;;;5.49;81.25
69713;BME280;56980;51.826;4.424;2022-12-08T06:05:33;101045.91;;;5.25;81.25
69713;BME280;56980;51.826;4.424;2022-12-08T06:07:59;101055.16;;;5.16;80.81
69713;BME280;56980;51.826;4.424;2022-12-08T06:10:24;101055.28;;;4.95;81.76
69713;BME280;56980;51.826;4.424;2022-12-08T06:12:50;101027.72;;;4.88;81.99
69713;BME280;56980;51.826;4.424;2022-12-08T06:15:15;101023.19;;;4.77;82.44
69713;BME280;56980;51.826;4.424;2022-12-08T06:17:41;101031.66;;;4.65;83.25
69713;BME280;56980;51.826;4.424;2022-12-08T06:20:06;101018.66;;;4.60;83.65
69713;BME280;56980;51.826;4.424;2022-12-08T06:22:32;101026.72;;;4.64;84.09
69713;BME280;56980;51.826;4.424;2022-12-08T06:24:57;101042.41;;;4.65;84.81
69713;BME280;56980;51.826;4.424;2022-12-08T06:27:23;101038.19;;;4.68;83.43
69713;BME280;56980;51.826;4.424;2022-12-08T06:29:48;101040.75;;;4.86;82.63
69713;BME280;56980;51.826;4.424;2022-12-08T06:32:14;100995.72;;;4.45;81.94
69713;BME280;56980;51.826;4.424;2022-12-08T06:34:39;101034.44;;;4.51;81.44
69713;BME280;56980;51.826;4.424;2022-12-08T06:37:04;101004.88;;;4.58;81.42
69713;BME280;56980;51.826;4.424;2022-12-08T06:39:30;101016.31;;;4.69;81.22
69713;BME280;56980;51.826;4.424;2022-12-08T06:41:55;101021.72;;;4.62;82.35
69713;BME280;56980;51.826;4.424;2022-12-08T06:44:39;101027.19;;;4.41;84.60
69713;BME280;56980;51.826;4.424;2022-12-08T06:47:04;101037.19;;;4.37;85.21
69713;BME280;56980;51.826;4.424;2022-12-08T06:49:30;101046.44;;;4.15;85.53
69713;BME280;56980;51.826;4.424;2022-12-08T06:51:55;101015.72;;;4.37;85.04
69713;BME280;56980;51.826;4.424;2022-12-08T06:54:21;101010.72;;;4.39;85.09
69713;BME280;56980;51.826;4.424;2022-12-08T06:56:46;101007.16;;;4.60;84.96
69713;BME280;56980;51.826;4.424;2022-12-08T06:59:11;101011.09;;;4.41;85.54
69713;BME280;56980;51.826;4.424;2022-12-08T07:01:37;101020.22;;;4.54;85.35
69713;BME280;56980;51.826;4.424;2022-12-08T07:04:02;101013.34;;;4.57;85.33
69713;BME280;56980;51.826;4.424;2022-12-08T07:06:28;101037.50;;;4.50;85.76
69713;BME280;56980;51.826;4.424;2022-12-08T07:08:53;101032.94;;;4.43;86.28
69713;BME280;56980;51.826;4.424;2022-12-08T07:11:18;101029.84;;;4.48;86.17
69713;BME280;56980;51.826;4.424;2022-12-08T07:13:44;101019.97;;;4.27;85.42
69713;BME280;56980;51.826;4.424;2022-12-08T07:16:10;101006.50;;;4.38;84.93
69713;BME280;56980;51.826;4.424;2022-12-08T07:18:37;101028.00;;;4.27;85.42
69713;BME280;56980;51.826;4.424;2022-12-08T07:21:07;101021.13;;;4.23;85.81
69713;BME280;56980;51.826;4.424;2022-12-08T07:23:33;101031.81;;;4.33;85.17
69713;BME280;56980;51.826;4.424;2022-12-08T07:26:01;101020.69;;;4.31;85.87
69713;BME280;56980;51.826;4.424;2022-12-08T07:28:29;101018.44;;;4.30;85.36
69713;BME280;56980;51.826;4.424;2022-12-08T07:30:54;101030.53;;;4.66;84.24
69713;BME280;56980;51.826;4.424;2022-12-08T07:33:20;101045.44;;;4.74;83.70
69713;BME280;56980;51.826;4.424;2022-12-08T07:35:56;101033.63;;;4.61;83.93
69713;BME280;56980;51.826;4.424;2022-12-08T07:38:22;101035.91;;;4.63;84.05
69713;BME280;56980;51.826;4.424;2022-12-08T07:40:48;101031.38;;;4.49;84.90
69713;BME280;56980;51.826;4.424;2022-12-08T07:43:13;101040.16;;;4.57;84.86
69713;BME280;56980;51.826;4.424;2022-12-08T07:45:39;101040.22;;;4.39;85.08
69713;BME280;56980;51.826;4.424;2022-12-08T07:48:05;101029.41;;;4.60;83.93
69713;BME280;56980;51.826;4.424;2022-12-08T07:50:30;101030.25;;;4.43;84.13
69713;BME280;56980;51.826;4.424;2022-12-08T07:52:56;101040.97;;;4.50;84.57
69713;BME280;56980;51.826;4.424;2022-12-08T07:55:21;101015.75;;;4.30;85.06
69713;BME280;56980;51.826;4.424;2022-12-08T07:57:46;101021.09;;;4.37;84.78
69713;BME280;56980;51.826;4.424;2022-12-08T08:00:12;101036.50;;;4.15;85.45
69713;BME280;56980;51.826;4.424;2022-12-08T08:02:38;101029.91;;;4.34;85.10
69713;BME280;56980;51.826;4.424;2022-12-08T08:05:04;101021.94;;;4.16;85.51
69713;BME280;56980;51.826;4.424;2022-12-08T08:07:30;101018.03;;;4.24;85.15
69713;BME280;56980;51.826;4.424;2022-12-08T08:09:56;101030.63;;;4.42;84.79
69713;BME280;56980;51.826;4.424;2022-12-08T08:12:21;101017.31;;;4.24;85.28
69713;BME280;56980;51.826;4.424;2022-12-08T08:14:47;101023.34;;;4.42;84.83
69713;BME280;56980;51.826;4.424;2022-12-08T08:17:12;100988.53;;;4.28;84.83
69713;BME280;56980;51.826;4.424;2022-12-08T08:19:37;101019.50;;;4.50;84.80
69713;BME280;56980;51.826;4.424;2022-12-08T08:22:03;101011.56;;;4.22;84.87
69713;BME280;56980;51.826;4.424;2022-12-08T08:24:28;101016.84;;;4.43;84.57
69713;BME280;56980;51.826;4.424;2022-12-08T08:26:53;101012.66;;;4.35;84.61
69713;BME280;56980;51.826;4.424;2022-12-08T08:29:19;101014.91;;;4.51;83.42
69713;BME280;56980;51.826;4.424;2022-12-08T08:31:45;101016.31;;;4.69;83.42
69713;BME280;56980;51.826;4.424;2022-12-08T08:34:10;101019.09;;;4.55;83.66
69713;BME280;56980;51.826;4.424;2022-12-08T08:36:35;101016.00;;;4.53;83.77
69713;BME280;56980;51.826;4.424;2022-12-08T08:39:02;100995.72;;;4.49;83.91
69713;BME280;56980;51.826;4.424;2022-12-08T08:41:27;101017.19;;;4.49;84.10
69713;BME280;56980;51.826;4.424;2022-12-08T08:43:53;101014.06;;;4.61;83.10
69713;BME280;56980;51.826;4.424;2022-12-08T08:46:19;101011.47;;;4.39;84.40
69713;BME280;56980;51.826;4.424;2022-12-08T08:48:44;101008.03;;;4.39;84.15
69713;BME280;56980;51.826;4.424;2022-12-08T08:51:11;101014.47;;;4.52;84.32
69713;BME280;56980;51.826;4.424;2022-12-08T08:53:37;101018.72;;;4.50;83.76
69713;BME280;56980;51.826;4.424;2022-12-08T08:56:10;101002.91;;;4.69;83.10
69713;BME280;56980;51.826;4.424;2022-12-08T08:58:36;101014.06;;;4.64;83.54
69713;BME280;56980;51.826;4.424;2022-12-08T09:01:01;101019.06;;;4.59;84.60
69713;BME280;56980;51.826;4.424;2022-12-08T09:03:26;101017.81;;;4.74;84.09
69713;BME280;56980;51.826;4.424;2022-12-08T09:05:54;101014.72;;;4.83;83.44
69713;BME280;56980;51.826;4.424;2022-12-08T09:08:19;100992.25;;;4.55;83.59
69713;BME280;56980;51.826;4.424;2022-12-08T09:10:45;101020.22;;;4.54;84.13
69713;BME280;56980;51.826;4.424;2022-12-08T09:13:10;101021.81;;;4.41;84.80
69713;BME280;56980;51.826;4.424;2022-12-08T09:15:36;101021.03;;;4.51;84.10
69713;BME280;56980;51.826;4.424;2022-12-08T09:18:01;101022.25;;;4.29;84.63
69713;BME280;56980;51.826;4.424;2022-12-08T09:20:27;101056.31;;;4.39;85.62
69713;BME280;56980;51.826;4.424;2022-12-08T09:22:52;101033.31;;;4.38;86.71
69713;BME280;56980;51.826;4.424;2022-12-08T09:25:17;101058.63;;;4.44;86.20
69713;BME280;56980;51.826;4.424;2022-12-08T09:27:43;101066.31;;;4.35;86.73
69713;BME280;56980;51.826;4.424;2022-12-08T09:30:08;101056.03;;;4.09;85.93
69713;BME280;56980;51.826;4.424;2022-12-08T09:32:34;101068.72;;;3.83;85.56
69713;BME280;56980;51.826;4.424;2022-12-08T09:34:59;101071.78;;;3.89;85.75
69713;BME280;56980;51.826;4.424;2022-12-08T09:37:25;101067.56;;;3.84;85.81
69713;BME280;56980;51.826;4.424;2022-12-08T09:39:51;101069.50;;;3.66;85.22
69713;BME280;56980;51.826;4.424;2022-12-08T09:42:32;101038.50;;;3.44;85.69
69713;BME280;56980;51.826;4.424;2022-12-08T09:45:07;101067.94;;;3.86;84.91
69713;BME280;56980;51.826;4.424;2022-12-08T09:47:41;101063.31;;;3.97;85.36
69713;BME280;56980;51.826;4.424;2022-12-08T09:50:16;101061.03;;;3.92;84.58
69713;BME280;56980;51.826;4.424;2022-12-08T09:52:47;101056.06;;;3.94;84.48
69713;BME280;56980;51.826;4.424;2022-12-08T09:55:39;101051.88;;;3.86;84.77
69713;BME280;56980;51.826;4.424;2022-12-08T09:58:14;101056.44;;;4.04;84.29
69713;BME280;56980;51.826;4.424;2022-12-08T10:00:41;101057.59;;;3.95;84.73
69713;BME280;56980;51.826;4.424;2022-12-08T10:03:13;101061.78;;;4.11;84.56
69713;BME280;56980;51.826;4.424;2022-12-08T10:05:56;101044.97;;;3.96;84.73
69713;BME280;56980;51.826;4.424;2022-12-08T10:08:31;101041.09;;;4.15;84.65
69713;BME280;56980;51.826;4.424;2022-12-08T10:11:10;101042.69;;;3.87;85.22
69713;BME280;56980;51.826;4.424;2022-12-08T10:13:46;101036.13;;;3.99;85.13
69713;BME280;56980;51.826;4.424;2022-12-08T10:16:28;101008.09;;;4.18;84.91
69713;BME280;56980;51.826;4.424;2022-12-08T10:19:22;101015.69;;;4.44;84.38
69713;BME280;56980;51.826;4.424;2022-12-08T10:21:48;101016.41;;;4.55;84.00
69713;BME280;56980;51.826;4.424;2022-12-08T10:24:33;101023.34;;;4.38;84.42
69713;BME280;56980;51.826;4.424;2022-12-08T10:27:01;100999.56;;;4.51;83.83
69713;BME280;56980;51.826;4.424;2022-12-08T10:29:27;101014.00;;;4.71;83.30
69713;BME280;56980;51.826;4.424;2022-12-08T10:31:55;101002.53;;;4.67;83.35
69713;BME280;56980;51.826;4.424;2022-12-08T10:34:22;101005.16;;;4.74;82.77
69713;BME280;56980;51.826;4.424;2022-12-08T10:47:35;101014.94;;;4.33;84.53
69713;BME280;56980;51.826;4.424;2022-12-08T10:50:22;101025.63;;;4.47;84.90
69713;BME280;56980;51.826;4.424;2022-12-08T10:53:09;101017.19;;;4.49;83.97
69713;BME280;56980;51.826;4.424;2022-12-08T10:55:45;100996.13;;;4.51;84.21
69713;BME280;56980;51.826;4.424;2022-12-08T11:03:30;100996.69;;;4.79;82.32
69713;BME280;56980;51.826;4.424;2022-12-08T11:06:08;100994.72;;;4.91;81.82
69713;BME280;56980;51.826;4.424;2022-12-08T11:09:04;100985.47;;;4.95;81.42
69713;BME280;56980;51.826;4.424;2022-12-08T11:11:44;100982.34;;;5.04;80.83
69713;BME280;56980;51.826;4.424;2022-12-08T11:14:32;100959.38;;;4.96;80.83
69713;BME280;56980;51.826;4.424;2022-12-08T11:17:07;100969.31;;;4.99;80.86
69713;BME280;56980;51.826;4.424;2022-12-08T11:19:38;100971.56;;;5.11;80.60
69713;BME280;56980;51.826;4.424;2022-12-08T11:22:23;100934.88;;;4.90;81.18
69713;BME280;56980;51.826;4.424;2022-12-08T11:25:17;100946.94;;;5.16;81.06
69713;BME280;56980;51.826;4.424;2022-12-08T11:27:45;100952.28;;;5.19;80.88
69713;BME280;56980;51.826;4.424;2022-12-08T11:30:17;100932.44;;;5.06;80.86
69713;BME280;56980;51.826;4.424;2022-12-08T11:32:44;100948.75;;;5.26;80.97
69713;BME280;56980;51.826;4.424;2022-12-08T11:35:18;100946.50;;;5.25;81.88
69713;BME280;56980;51.826;4.424;2022-12-08T11:37:44;100942.22;;;5.27;81.43
69713;BME280;56980;51.826;4.424;2022-12-08T11:40:27;100932.34;;;5.17;82.18
69713;BME280;56980;51.826;4.424;2022-12-08T11:43:14;100945.34;;;5.22;82.13
69713;BME280;56980;51.826;4.424;2022-12-08T11:45:42;100938.88;;;5.16;81.85
69713;BME280;56980;51.826;4.424;2022-12-08T11:48:17;100952.25;;;5.23;81.34
69713;BME280;56980;51.826;4.424;2022-12-08T11:50:49;100947.00;;;5.09;82.91
69713;BME280;56980;51.826;4.424;2022-12-08T11:53:42;100959.16;;;5.24;82.37
69713;BME280;56980;51.826;4.424;2022-12-08T11:58:56;100938.50;;;5.17;82.10
69713;BME280;56980;51.826;4.424;2022-12-08T12:01:25;100927.09;;;5.03;82.22
69713;BME280;56980;51.826;4.424;2022-12-08T12:03:57;100939.22;;;5.22;83.04
69713;BME280;56980;51.826;4.424;2022-12-08T12:09:18;100948.31;;;4.87;84.00
69713;BME280;56980;51.826;4.424;2022-12-08T12:20:28;100934.03;;;5.00;84.28
69713;BME280;56980;51.826;4.424;2022-12-08T12:23:10;100923.38;;;4.90;84.53
69713;BME280;56980;51.826;4.424;2022-12-08T12:25:45;100931.78;;;4.92;85.08
69713;BME280;56980;51.826;4.424;2022-12-08T12:28:13;100927.47;;;5.05;84.84
69713;BME280;56980;51.826;4.424;2022-12-08T12:33:19;100908.75;;;4.94;84.87
69713;BME280;56980;51.826;4.424;2022-12-08T12:35:46;100930.06;;;5.15;85.10
69713;BME280;56980;51.826;4.424;2022-12-08T12:38:30;100911.00;;;5.03;84.95
69713;BME280;56980;51.826;4.424;2022-12-08T12:41:21;100928.53;;;5.14;84.80
69713;BME280;56980;51.826;4.424;2022-12-08T12:44:08;100932.44;;;5.06;84.44
69713;BME280;56980;51.826;4.424;2022-12-08T12:46:38;100922.56;;;4.96;84.76
69713;BME280;56980;51.826;4.424;2022-12-08T12:57:18;100912.03;;;5.12;84.60
69713;BME280;56980;51.826;4.424;2022-12-08T13:02:36;100903.63;;;5.10;84.31
69713;BME280;56980;51.826;4.424;2022-12-08T13:05:09;100901.66;;;5.14;84.75
69713;BME280;56980;51.826;4.424;2022-12-08T13:12:41;100876.28;;;5.19;83.89
69713;BME280;56980;51.826;4.424;2022-12-08T13:15:16;100858.00;;;5.07;83.59
69713;BME280;56980;51.826;4.424;2022-12-08T13:17:44;100839.06;;;4.80;83.29
69713;BME280;56980;51.826;4.424;2022-12-08T13:20:22;100868.72;;;5.10;82.63
69713;BME280;56980;51.826;4.424;2022-12-08T13:23:01;100872.59;;;5.06;82.59
69713;BME280;56980;51.826;4.424;2022-12-08T13:30:51;100889.22;;;4.90;83.71
69713;BME280;56980;51.826;4.424;2022-12-08T13:33:22;100887.28;;;4.94;83.94
69713;BME280;56980;51.826;4.424;2022-12-08T13:35:55;100891.75;;;5.08;83.43
69713;BME280;56980;51.826;4.424;2022-12-08T13:38:27;100887.91;;;5.09;83.47
69713;BME280;56980;51.826;4.424;2022-12-08T13:40:54;100877.94;;;5.09;83.28
69713;BME280;56980;51.826;4.424;2022-12-08T13:44:22;100889.44;;;5.10;83.03
69713;BME280;56980;51.826;4.424;2022-12-08T13:46:45;100896.84;;;4.47;85.17
69713;BME280;56980;51.826;4.424;2022-12-08T13:49:17;100905.31;;;4.42;85.81
69713;BME280;56980;51.826;4.424;2022-12-08T13:51:48;100882.38;;;4.27;85.39
69713;BME280;56980;51.826;4.424;2022-12-08T13:56:48;100894.47;;;3.90;87.55
69713;BME280;56980;51.826;4.424;2022-12-08T14:01:44;100887.59;;;3.82;87.14
69713;BME280;56980;51.826;4.424;2022-12-08T14:04:19;100883.38;;;3.88;86.94
69713;BME280;56980;51.826;4.424;2022-12-08T14:06:47;100869.56;;;3.90;86.97
69713;BME280;56980;51.826;4.424;2022-12-08T14:09:22;100845.44;;;3.86;86.71
69713;BME280;56980;51.826;4.424;2022-12-08T14:11:59;100862.59;;;4.07;87.14
69713;BME280;56980;51.826;4.424;2022-12-08T14:14:41;100848.38;;;4.13;85.68
69713;BME280;56980;51.826;4.424;2022-12-08T14:17:12;100871.75;;;4.13;85.05
69713;BME280;56980;51.826;4.424;2022-12-08T14:19:41;100835.09;;;3.88;86.13
69713;BME280;56980;51.826;4.424;2022-12-08T14:24:33;100872.94;;;4.08;85.94
69713;BME280;56980;51.826;4.424;2022-12-08T14:27:00;100844.97;;;4.06;85.00
69713;BME280;56980;51.826;4.424;2022-12-08T14:29:37;100875.59;;;4.05;84.91
69713;BME280;56980;51.826;4.424;2022-12-08T14:32:05;100858.28;;;4.20;84.77
69713;BME280;56980;51.826;4.424;2022-12-08T14:34:34;100868.69;;;4.14;84.85
69713;BME280;56980;51.826;4.424;2022-12-08T14:37:07;100851.03;;;4.17;84.59
69713;BME280;56980;51.826;4.424;2022-12-08T14:39:34;100878.91;;;4.33;84.18